Time;durP1;ratioP1;P1;durP2;ratioP2;P2;SDS_P1;SDS_P2;PMS_P1;PMS_P2;Temp;Humidity;BMP_temperature;BMP_pressure;BME280_temperature;BME280_humidity;BME280_pressure;Samples;Min_cycle;Max_cycle;Signal;HPM_P1;HPM_P2
2023/02/27 00:00:59;;;;;;;4.88;1.90;;;1.80;83.60;;;;;;4704876;30;20168;-80
2023/02/27 00:03:26;;;;;;;4.15;1.73;;;1.80;83.80;;;;;;4676631;30;20060;-81
2023/02/27 00:05:55;;;;;;;5.00;1.85;;;1.80;83.90;;;;;;4694277;30;20830;-80
2023/02/27 00:08:23;;;;;;;5.03;1.55;;;1.80;83.60;;;;;;4680150;30;20057;-81
2023/02/27 00:10:50;;;;;;;7.97;1.83;;;1.70;83.40;;;;;;4706030;30;22367;-81
2023/02/27 00:13:17;;;;;;;8.07;2.72;;;1.70;83.40;;;;;;4684793;30;20060;-80
2023/02/27 00:15:46;;;;;;;8.60;2.67;;;1.80;83.70;;;;;;4693936;30;20056;-80
2023/02/27 00:18:14;;;;;;;10.95;2.78;;;1.80;83.70;;;;;;4693799;30;20936;-81
2023/02/27 00:20:41;;;;;;;8.05;2.55;;;1.80;83.80;;;;;;4712996;30;20056;-80
2023/02/27 00:23:09;;;;;;;4.57;1.85;;;1.70;83.50;;;;;;4694692;30;20729;-81
2023/02/27 00:25:36;;;;;;;7.38;2.30;;;1.70;83.60;;;;;;4691591;30;20103;-81
2023/02/27 00:28:04;;;;;;;7.32;2.13;;;1.60;83.50;;;;;;4691996;30;20497;-80
2023/02/27 00:30:31;;;;;;;5.43;2.00;;;1.60;83.80;;;;;;4665461;30;20078;-80
2023/02/27 00:32:58;;;;;;;5.70;1.95;;;1.60;83.80;;;;;;4679103;30;20056;-80
2023/02/27 00:35:25;;;;;;;5.75;2.13;;;1.60;83.90;;;;;;4706489;30;20097;-80
2023/02/27 00:37:53;;;;;;;6.82;2.53;;;1.50;83.70;;;;;;4690178;30;20783;-81
2023/02/27 00:40:20;;;;;;;8.32;2.97;;;1.50;83.60;;;;;;4710961;30;20092;-81
2023/02/27 00:42:48;;;;;;;5.75;1.98;;;1.50;83.70;;;;;;4677505;30;20057;-81
2023/02/27 00:45:15;;;;;;;5.30;2.15;;;1.50;83.60;;;;;;4686602;30;20151;-81
2023/02/27 00:47:42;;;;;;;6.63;1.77;;;1.40;83.60;;;;;;4687495;30;20075;-81
2023/02/27 00:50:11;;;;;;;4.47;1.92;;;1.40;83.60;;;;;;4696298;30;20056;-81
2023/02/27 00:52:38;;;;;;;6.18;2.45;;;1.40;83.70;;;;;;4688335;30;20113;-80
2023/02/27 00:55:07;;;;;;;8.15;2.08;;;1.40;83.30;;;;;;4686901;30;20053;-80
2023/02/27 00:57:35;;;;;;;5.88;1.75;;;1.30;83.50;;;;;;4708870;30;20514;-80
2023/02/27 01:00:05;;;;;;;7.25;2.25;;;1.30;83.70;;;;;;4710738;30;20052;-80
2023/02/27 01:02:32;;;;;;;9.30;2.85;;;1.30;83.90;;;;;;4690150;30;20208;-80
2023/02/27 01:05:00;;;;;;;7.40;2.25;;;1.30;83.60;;;;;;4680042;30;20067;-80
2023/02/27 01:07:27;;;;;;;4.85;1.60;;;1.20;83.10;;;;;;4684870;30;20061;-80
2023/02/27 01:09:54;;;;;;;5.65;1.73;;;1.20;83.10;;;;;;4686759;30;20045;-80
2023/02/27 01:12:21;;;;;;;5.85;2.00;;;1.20;83.20;;;;;;4690431;30;20363;-81
2023/02/27 01:14:48;;;;;;;4.72;1.70;;;1.20;83.00;;;;;;4697386;30;20052;-80
2023/02/27 01:17:16;;;;;;;5.35;1.67;;;1.20;83.10;;;;;;4689879;30;20170;-80
2023/02/27 01:19:43;;;;;;;5.47;1.75;;;1.30;82.80;;;;;;4692515;30;21021;-80
2023/02/27 01:22:11;;;;;;;8.23;2.30;;;1.20;82.50;;;;;;4693120;30;20064;-80
2023/02/27 01:24:38;;;;;;;5.88;2.33;;;1.20;82.30;;;;;;4688856;30;20063;-80
2023/02/27 01:27:05;;;;;;;6.05;1.88;;;1.20;82.30;;;;;;4686895;30;20044;-80
2023/02/27 01:29:35;;;;;;;5.38;1.92;;;1.20;82.20;;;;;;4679960;30;20185;-80
2023/02/27 01:32:02;;;;;;;5.57;1.85;;;1.20;82.00;;;;;;4693366;30;20052;-79
2023/02/27 01:34:30;;;;;;;3.72;1.90;;;1.20;81.90;;;;;;4697955;30;20056;-79
2023/02/27 01:37:01;;;;;;;3.10;1.17;;;1.20;81.90;;;;;;4692053;30;20710;-81
2023/02/27 01:39:28;;;;;;;6.03;1.63;;;1.30;81.70;;;;;;4690694;30;20068;-80
2023/02/27 01:41:55;;;;;;;7.30;2.05;;;1.30;81.50;;;;;;4692600;30;20650;-81
2023/02/27 01:44:27;;;;;;;4.82;1.60;;;1.40;81.50;;;;;;4695379;30;20516;-81
2023/02/27 01:46:55;;;;;;;5.40;1.73;;;1.40;81.20;;;;;;4689837;30;20061;-80
2023/02/27 01:49:33;;;;;;;5.32;1.90;;;1.30;81.30;;;;;;4712733;30;20060;-80
2023/02/27 01:52:07;;;;;;;4.05;1.40;;;1.30;81.70;;;;;;4711052;30;20830;-79
2023/02/27 01:54:38;;;;;;;6.00;1.98;;;1.30;81.80;;;;;;4689453;30;20950;-78
2023/02/27 01:57:06;;;;;;;5.15;1.60;;;1.30;81.60;;;;;;4694050;30;20057;-81
2023/02/27 01:59:35;;;;;;;6.30;1.70;;;1.30;81.60;;;;;;4682022;30;20498;-80
2023/02/27 02:02:11;;;;;;;5.15;1.40;;;1.30;81.60;;;;;;4679153;30;20048;-78
2023/02/27 02:04:39;;;;;;;3.33;1.45;;;1.20;81.50;;;;;;4699222;30;20053;-81
2023/02/27 02:07:10;;;;;;;4.00;1.17;;;1.30;81.80;;;;;;4697540;30;20151;-80
2023/02/27 02:09:42;;;;;;;4.80;1.55;;;1.30;82.10;;;;;;4682354;30;20522;-80
2023/02/27 02:12:13;;;;;;;6.50;1.63;;;1.30;81.90;;;;;;4697405;30;20056;-81
2023/02/27 02:14:42;;;;;;;5.43;2.58;;;1.30;82.20;;;;;;4698694;30;22668;-80
2023/02/27 02:17:12;;;;;;;4.97;1.38;;;1.30;82.00;;;;;;4694994;30;20065;-80
2023/02/27 02:20:18;;;;;;;4.18;1.27;;;1.30;82.00;;;;;;4692449;30;20056;-80
2023/02/27 02:22:54;;;;;;;3.05;1.25;;;1.30;82.70;;;;;;4694910;30;20195;-80
2023/02/27 02:25:43;;;;;;;5.15;2.05;;;1.30;81.80;;;;;;4710260;30;22740;-80
2023/02/27 02:28:41;;;;;;;4.90;1.90;;;1.30;81.70;;;;;;4711751;30;22495;-81
2023/02/27 02:31:32;;;;;;;6.80;1.50;;;1.20;81.60;;;;;;4698702;30;20060;-79
2023/02/27 02:34:21;;;;;;;6.25;1.90;;;1.30;81.70;;;;;;4685076;30;20945;-80
2023/02/27 02:37:07;;;;;;;6.13;1.48;;;1.30;81.30;;;;;;4696267;30;20061;-81
2023/02/27 02:39:40;;;;;;;3.90;1.60;;;1.30;81.50;;;;;;4695512;30;20763;-80
2023/02/27 02:42:25;;;;;;;3.60;1.30;;;1.30;81.70;;;;;;4686117;30;20057;-81
2023/02/27 02:44:58;;;;;;;4.45;1.35;;;1.40;81.80;;;;;;4695686;30;20055;-80
2023/02/27 02:48:05;;;;;;;4.30;1.30;;;1.30;81.20;;;;;;4693823;30;20201;-79
2023/02/27 02:51:15;;;;;;;4.90;1.85;;;1.30;81.30;;;;;;4684711;30;20064;-82
2023/02/27 02:53:57;;;;;;;4.75;1.67;;;1.30;81.40;;;;;;4695033;30;20107;-81
2023/02/27 02:56:47;;;;;;;5.40;1.67;;;1.30;81.40;;;;;;4688744;30;20057;-80
2023/02/27 02:59:37;;;;;;;3.78;1.40;;;1.30;81.30;;;;;;4696042;30;20061;-81
2023/02/27 03:02:16;;;;;;;4.82;1.15;;;1.30;81.30;;;;;;4670652;30;20068;-79
2023/02/27 03:05:06;;;;;;;5.57;1.95;;;1.20;80.70;;;;;;4696647;30;20044;-81
2023/02/27 03:07:59;;;;;;;5.45;1.50;;;1.30;80.80;;;;;;4708042;30;20061;-82
2023/02/27 03:10:45;;;;;;;3.88;1.10;;;1.20;80.60;;;;;;4688062;30;20096;-81
2023/02/27 03:13:34;;;;;;;3.67;1.45;;;1.30;80.80;;;;;;4668612;30;20429;-78
2023/02/27 03:16:11;;;;;;;3.55;1.83;;;1.30;80.10;;;;;;4684793;30;20060;-81
2023/02/27 03:19:01;;;;;;;5.68;1.20;;;1.30;80.60;;;;;;4693269;30;20060;-81
2023/02/27 03:21:37;;;;;;;3.55;1.67;;;1.30;80.20;;;;;;4695216;30;20060;-81
2023/02/27 03:24:08;;;;;;;2.90;1.38;;;1.30;80.10;;;;;;4695142;30;20057;-81
2023/02/27 03:26:41;;;;;;;5.50;1.58;;;1.30;79.60;;;;;;4711057;30;20049;-81
2023/02/27 03:29:19;;;;;;;4.28;1.70;;;1.20;80.20;;;;;;4704850;30;20068;-81
2023/02/27 03:31:53;;;;;;;4.00;1.67;;;1.30;79.80;;;;;;4678828;30;20099;-81
2023/02/27 03:34:26;;;;;;;6.20;1.52;;;1.20;79.70;;;;;;4695731;30;20278;-81
2023/02/27 03:37:04;;;;;;;4.35;1.60;;;1.10;80.00;;;;;;4693981;30;22416;-81
2023/02/27 03:39:45;;;;;;;4.50;1.45;;;1.30;80.00;;;;;;4695126;30;20169;-80
2023/02/27 03:42:37;;;;;;;6.03;2.15;;;1.30;79.60;;;;;;4694979;30;20061;-81
2023/02/27 03:45:44;;;;;;;5.32;1.85;;;1.30;79.30;;;;;;4692980;30;20056;-81
2023/02/27 03:48:12;;;;;;;4.93;1.23;;;1.30;79.40;;;;;;4670386;30;20433;-81
2023/02/27 03:50:40;;;;;;;3.92;1.25;;;1.30;79.30;;;;;;4695566;30;20045;-81
2023/02/27 03:53:32;;;;;;;4.38;1.90;;;1.30;79.40;;;;;;4692029;30;22801;-81
2023/02/27 03:56:02;;;;;;;5.03;1.80;;;1.30;79.20;;;;;;4694420;30;20784;-81
2023/02/27 03:58:30;;;;;;;3.20;1.40;;;1.30;79.20;;;;;;4715230;30;20305;-81
2023/02/27 04:00:57;;;;;;;3.78;1.48;;;1.30;79.60;;;;;;4708303;30;20059;-81
2023/02/27 04:03:25;;;;;;;4.18;1.30;;;1.30;79.40;;;;;;4696578;30;20060;-81
2023/02/27 04:05:53;;;;;;;6.10;1.05;;;1.30;78.90;;;;;;4678342;30;23606;-80
2023/02/27 04:08:29;;;;;;;3.08;0.82;;;1.30;78.90;;;;;;4694072;30;20384;-81
2023/02/27 04:11:34;;;;;;;3.20;1.10;;;1.40;79.30;;;;;;4693771;30;20506;-81
2023/02/27 04:14:37;;;;;;;2.60;1.10;;;1.40;78.80;;;;;;4695121;30;22383;-81
2023/02/27 04:17:15;;;;;;;4.25;1.10;;;1.40;78.60;;;;;;4728126;30;20067;-81
2023/02/27 04:19:50;;;;;;;4.78;1.48;;;1.40;78.90;;;;;;4718248;30;20111;-81
2023/02/27 04:22:29;;;;;;;4.78;1.73;;;1.40;78.40;;;;;;4693952;30;20067;-81
2023/02/27 04:25:02;;;;;;;2.58;0.70;;;1.30;78.40;;;;;;4683776;30;20060;-80
2023/02/27 04:28:01;;;;;;;3.75;1.27;;;1.40;78.90;;;;;;4704927;30;20064;-81
2023/02/27 04:30:52;;;;;;;5.47;1.25;;;1.30;78.30;;;;;;4676715;30;20069;-81
2023/02/27 04:33:19;;;;;;;4.22;1.25;;;1.30;78.30;;;;;;4712207;30;20143;-81
2023/02/27 04:35:55;;;;;;;4.53;1.75;;;1.30;78.20;;;;;;4678046;30;20153;-81
2023/02/27 04:38:40;;;;;;;3.70;1.48;;;1.30;78.00;;;;;;4698154;30;20510;-81
2023/02/27 04:41:13;;;;;;;3.20;1.48;;;1.30;78.20;;;;;;4704588;30;20059;-80
2023/02/27 04:43:44;;;;;;;5.28;1.23;;;1.30;78.10;;;;;;4696204;30;20525;-81
2023/02/27 04:46:15;;;;;;;16.20;4.78;;;1.30;78.30;;;;;;4701679;30;20061;-81
2023/02/27 04:48:54;;;;;;;7.15;2.10;;;1.30;78.20;;;;;;4697149;30;20060;-81
2023/02/27 04:51:33;;;;;;;7.30;1.70;;;1.30;78.40;;;;;;4692718;30;20064;-81
2023/02/27 04:54:11;;;;;;;6.88;1.58;;;1.40;78.40;;;;;;4690869;30;20065;-81
2023/02/27 04:56:52;;;;;;;9.55;2.95;;;1.30;78.40;;;;;;4692992;30;22216;-81
2023/02/27 04:59:24;;;;;;;6.82;1.40;;;1.40;78.20;;;;;;4693889;30;20114;-81
2023/02/27 05:02:01;;;;;;;4.85;1.60;;;1.30;77.90;;;;;;4700130;30;20052;-81
2023/02/27 05:04:33;;;;;;;3.80;1.50;;;1.30;78.30;;;;;;4716952;30;20053;-81
2023/02/27 05:07:02;;;;;;;2.27;1.10;;;1.30;77.90;;;;;;4695167;30;20422;-81
2023/02/27 05:09:37;;;;;;;3.10;0.90;;;1.30;78.40;;;;;;4687833;30;20065;-81
2023/02/27 05:12:20;;;;;;;6.65;1.58;;;1.30;78.30;;;;;;4685663;30;20068;-81
2023/02/27 05:15:02;;;;;;;3.58;1.08;;;1.30;78.20;;;;;;4696470;30;20064;-81
2023/02/27 05:17:38;;;;;;;4.90;1.00;;;1.30;78.50;;;;;;4695311;30;20241;-82
2023/02/27 05:20:08;;;;;;;3.60;1.15;;;1.40;78.70;;;;;;4700884;30;20271;-81
2023/02/27 05:22:46;;;;;;;2.63;1.08;;;1.40;78.40;;;;;;4689202;30;20052;-81
2023/02/27 05:25:38;;;;;;;6.20;1.80;;;1.30;78.10;;;;;;4697788;30;20142;-81
2023/02/27 05:28:15;;;;;;;8.82;3.90;;;1.30;78.00;;;;;;4694185;30;20105;-81
2023/02/27 05:30:56;;;;;;;10.77;4.28;;;1.30;78.40;;;;;;4647303;30;20065;-81
2023/02/27 05:33:28;;;;;;;12.73;4.70;;;1.30;78.20;;;;;;4663439;30;20065;-81
2023/02/27 05:35:59;;;;;;;16.20;4.72;;;1.40;78.70;;;;;;4648298;30;20484;-81
2023/02/27 05:38:40;;;;;;;11.18;3.30;;;1.40;78.60;;;;;;4648287;30;20060;-81
2023/02/27 05:41:15;;;;;;;8.18;3.00;;;1.40;78.40;;;;;;4660481;30;20068;-81
2023/02/27 05:44:03;;;;;;;8.45;2.85;;;1.40;78.20;;;;;;4683488;30;20041;-81
2023/02/27 05:46:35;;;;;;;9.38;3.13;;;1.30;78.20;;;;;;4673774;30;20061;-81
2023/02/27 05:49:11;;;;;;;10.15;2.75;;;1.40;78.60;;;;;;4664230;30;20526;-81
2023/02/27 05:51:43;;;;;;;9.63;3.13;;;1.40;78.60;;;;;;4661124;30;20176;-81
2023/02/27 05:54:21;;;;;;;12.40;3.38;;;1.40;78.60;;;;;;4663726;30;20060;-80
2023/02/27 05:56:52;;;;;;;8.20;2.63;;;1.40;78.40;;;;;;4664985;30;20067;-81
2023/02/27 05:59:38;;;;;;;8.80;4.18;;;1.40;78.40;;;;;;4664021;30;20064;-81
2023/02/27 06:02:05;;;;;;;7.47;2.90;;;1.30;77.40;;;;;;4661920;30;20892;-81
2023/02/27 06:04:32;;;;;;;5.13;1.88;;;1.40;77.40;;;;;;4660392;30;20057;-81
2023/02/27 06:07:00;;;;;;;7.90;2.55;;;1.40;77.70;;;;;;4648514;30;20052;-81
2023/02/27 06:09:27;;;;;;;7.03;2.08;;;1.40;77.50;;;;;;4663307;30;20065;-81
2023/02/27 06:11:55;;;;;;;4.80;2.08;;;1.40;77.70;;;;;;4685600;30;20069;-81
2023/02/27 06:14:22;;;;;;;6.25;2.10;;;1.40;77.20;;;;;;4668565;30;20045;-81
2023/02/27 06:16:49;;;;;;;4.03;1.63;;;1.50;77.80;;;;;;4677897;30;20136;-81
2023/02/27 06:19:16;;;;;;;3.97;1.35;;;1.50;77.30;;;;;;4662350;30;22769;-81
2023/02/27 06:21:43;;;;;;;4.05;1.63;;;1.50;77.40;;;;;;4691747;30;20134;-81
2023/02/27 06:24:10;;;;;;;4.75;1.55;;;1.50;77.30;;;;;;4662207;30;20718;-81
2023/02/27 06:26:37;;;;;;;5.93;1.90;;;1.60;77.30;;;;;;4670134;30;20064;-81
2023/02/27 06:29:04;;;;;;;3.60;1.60;;;1.60;77.30;;;;;;4685421;30;20069;-81
2023/02/27 06:31:32;;;;;;;5.60;2.00;;;1.60;76.60;;;;;;4713643;30;20194;-81
2023/02/27 06:33:59;;;;;;;6.90;1.48;;;1.60;76.70;;;;;;4705451;30;20061;-81
2023/02/27 06:36:27;;;;;;;7.40;1.90;;;1.60;76.30;;;;;;4707612;30;20060;-81
2023/02/27 06:38:56;;;;;;;4.22;1.63;;;1.70;76.70;;;;;;4700155;30;20538;-81
2023/02/27 06:41:24;;;;;;;3.65;1.20;;;1.70;76.20;;;;;;4690874;30;20124;-81
2023/02/27 06:43:51;;;;;;;3.42;1.38;;;1.70;75.70;;;;;;4701873;30;20048;-81
2023/02/27 06:46:18;;;;;;;4.63;1.98;;;1.80;75.70;;;;;;4708123;30;20521;-82
2023/02/27 06:48:45;;;;;;;3.35;1.30;;;1.90;75.50;;;;;;4684253;30;20857;-81
2023/02/27 06:51:12;;;;;;;5.28;1.77;;;1.30;75.00;;;;;;4712177;30;20061;-81
2023/02/27 06:53:40;;;;;;;6.18;1.52;;;1.80;75.10;;;;;;4693178;30;20064;-82
2023/02/27 06:56:07;;;;;;;4.22;1.13;;;1.90;75.00;;;;;;4707641;30;20060;-82
2023/02/27 06:58:34;;;;;;;4.38;1.35;;;1.90;74.50;;;;;;4694294;30;20056;-81
2023/02/27 07:01:01;;;;;;;4.68;1.40;;;1.90;74.50;;;;;;4718315;30;20091;-81
2023/02/27 07:03:29;;;;;;;5.80;1.52;;;1.90;74.10;;;;;;4692070;30;21545;-81
2023/02/27 07:05:57;;;;;;;5.82;2.13;;;2.00;74.20;;;;;;4701987;30;20110;-81
2023/02/27 07:08:24;;;;;;;7.57;1.85;;;2.00;74.10;;;;;;4719121;30;20187;-81
2023/02/27 07:10:51;;;;;;;3.55;1.20;;;2.00;74.00;;;;;;4694136;30;20649;-81
2023/02/27 07:13:19;;;;;;;3.85;1.70;;;2.10;74.60;;;;;;4702310;30;20096;-81
2023/02/27 07:15:46;;;;;;;6.75;1.85;;;2.20;74.30;;;;;;4704583;30;20161;-81
2023/02/27 07:18:13;;;;;;;3.75;1.55;;;2.30;73.50;;;;;;4703813;30;20768;-81
2023/02/27 07:20:41;;;;;;;4.82;1.13;;;2.50;73.90;;;;;;4687999;30;20056;-81
2023/02/27 07:23:09;;;;;;;5.13;1.48;;;2.30;73.40;;;;;;4706880;30;20051;-81
2023/02/27 07:25:36;;;;;;;2.72;1.23;;;2.40;73.40;;;;;;4694784;30;20048;-81
2023/02/27 07:28:03;;;;;;;5.88;1.30;;;2.40;72.90;;;;;;4702696;30;20071;-81
2023/02/27 07:30:31;;;;;;;3.72;0.90;;;2.40;72.40;;;;;;4706487;30;20061;-81
2023/02/27 07:32:59;;;;;;;2.42;1.27;;;2.40;72.60;;;;;;4702950;30;20067;-81
2023/02/27 07:35:27;;;;;;;3.38;0.70;;;2.40;72.70;;;;;;4701628;30;20096;-81
2023/02/27 07:37:54;;;;;;;5.97;1.83;;;2.40;72.10;;;;;;4701979;30;20977;-81
2023/02/27 07:40:21;;;;;;;5.28;1.60;;;2.40;71.80;;;;;;4693296;30;20056;-81
2023/02/27 07:42:48;;;;;;;4.53;1.05;;;2.40;72.00;;;;;;4694892;30;20134;-82
2023/02/27 07:45:19;;;;;;;3.95;1.58;;;2.40;72.10;;;;;;4704143;30;20056;-81
2023/02/27 07:47:46;;;;;;;5.65;1.00;;;2.40;72.40;;;;;;4704906;30;20122;-81
2023/02/27 07:50:14;;;;;;;4.30;1.35;;;2.30;71.80;;;;;;4689447;30;20480;-82
2023/02/27 07:52:42;;;;;;;7.70;2.47;;;2.40;72.20;;;;;;4704523;30;20138;-81
2023/02/27 07:55:11;;;;;;;5.97;2.08;;;2.50;72.20;;;;;;4702665;30;20056;-81
2023/02/27 07:57:39;;;;;;;3.08;1.20;;;2.50;71.90;;;;;;4706762;30;20311;-81
2023/02/27 08:00:08;;;;;;;4.95;1.80;;;2.60;72.20;;;;;;4699402;30;20076;-81
2023/02/27 08:02:39;;;;;;;5.22;1.25;;;2.50;72.10;;;;;;4689312;30;20102;-81
2023/02/27 08:05:07;;;;;;;6.15;1.80;;;2.60;71.70;;;;;;4707147;30;20064;-81
2023/02/27 08:07:35;;;;;;;3.60;1.05;;;2.20;71.50;;;;;;4694220;30;20060;-81
2023/02/27 08:10:04;;;;;;;3.50;1.23;;;1.80;71.10;;;;;;4691096;30;20064;-81
2023/02/27 08:12:31;;;;;;;4.38;1.15;;;2.70;71.10;;;;;;4691611;30;20065;-81
2023/02/27 08:14:58;;;;;;;3.58;1.13;;;2.80;71.80;;;;;;4696151;30;20088;-82
2023/02/27 08:17:25;;;;;;;5.18;1.40;;;2.80;71.10;;;;;;4693638;30;20060;-81
2023/02/27 08:19:53;;;;;;;4.32;1.40;;;2.90;70.90;;;;;;4717457;30;20095;-81
2023/02/27 08:22:20;;;;;;;2.30;0.90;;;3.00;71.20;;;;;;4703194;30;20092;-81
2023/02/27 08:24:47;;;;;;;6.15;1.05;;;3.00;70.40;;;;;;4703251;30;20096;-81
2023/02/27 08:27:14;;;;;;;3.58;1.25;;;3.10;70.80;;;;;;4703718;30;20890;-81
2023/02/27 08:29:42;;;;;;;2.13;0.90;;;3.10;69.90;;;;;;4694096;30;20722;-81
2023/02/27 08:32:09;;;;;;;3.67;1.33;;;3.10;70.10;;;;;;4700818;30;20055;-81
2023/02/27 08:34:36;;;;;;;3.92;0.90;;;3.20;70.10;;;;;;4711695;30;20053;-81
2023/02/27 08:37:03;;;;;;;2.25;0.43;;;3.20;69.50;;;;;;4685503;30;20805;-81
2023/02/27 08:39:31;;;;;;;3.83;1.20;;;3.20;69.10;;;;;;4680757;30;20103;-81
2023/02/27 08:41:58;;;;;;;6.35;1.42;;;3.30;69.70;;;;;;4720434;30;20067;-81
2023/02/27 08:44:25;;;;;;;2.97;0.88;;;3.40;69.60;;;;;;4701131;30;20080;-81
2023/02/27 08:46:52;;;;;;;4.13;1.27;;;3.30;68.40;;;;;;4686179;30;20053;-81
2023/02/27 08:49:21;;;;;;;3.00;1.00;;;3.20;68.10;;;;;;4698862;30;20061;-81
2023/02/27 08:51:48;;;;;;;5.50;1.33;;;3.40;68.40;;;;;;4712965;30;20942;-81
2023/02/27 08:54:17;;;;;;;3.03;0.82;;;3.40;68.10;;;;;;4727356;30;20056;-81
2023/02/27 08:56:44;;;;;;;2.58;0.70;;;3.40;68.10;;;;;;4705812;30;20470;-82
2023/02/27 08:59:11;;;;;;;2.97;0.80;;;3.40;67.90;;;;;;4706643;30;20686;-82
2023/02/27 09:01:39;;;;;;;2.53;0.65;;;3.50;67.80;;;;;;4706287;30;20057;-81
2023/02/27 09:04:07;;;;;;;2.55;0.88;;;3.50;68.00;;;;;;4688549;30;20060;-81
2023/02/27 09:06:35;;;;;;;4.90;0.88;;;3.60;68.40;;;;;;4683739;30;22611;-81
2023/02/27 09:09:03;;;;;;;4.90;0.80;;;3.50;67.30;;;;;;4687680;30;20053;-81
2023/02/27 09:11:30;;;;;;;3.03;0.60;;;3.60;67.90;;;;;;4699703;30;20414;-81
2023/02/27 09:13:58;;;;;;;2.25;0.60;;;3.70;68.30;;;;;;4694314;30;20413;-81
2023/02/27 09:16:25;;;;;;;2.83;0.65;;;3.80;68.00;;;;;;4701520;30;20056;-81
2023/02/27 09:18:53;;;;;;;3.90;0.98;;;3.80;69.50;;;;;;4700025;30;22627;-81
2023/02/27 09:21:22;;;;;;;3.65;0.77;;;3.90;69.20;;;;;;4694330;30;20107;-81
2023/02/27 09:23:50;;;;;;;6.15;2.45;;;3.80;66.50;;;;;;4701498;30;20151;-81
2023/02/27 09:26:17;;;;;;;5.05;1.38;;;3.80;66.60;;;;;;4686264;30;20052;-80
2023/02/27 09:28:44;;;;;;;2.80;1.23;;;3.70;66.40;;;;;;4678386;30;20522;-81
2023/02/27 09:31:12;;;;;;;18.73;4.57;;;3.70;65.80;;;;;;4680296;30;20457;-81
2023/02/27 09:33:39;;;;;;;6.00;1.77;;;3.60;65.40;;;;;;4709465;30;20199;-81
2023/02/27 09:36:07;;;;;;;4.13;1.40;;;3.70;65.50;;;;;;4693402;30;20060;-81
2023/02/27 09:38:35;;;;;;;4.10;1.60;;;3.90;66.40;;;;;;4709930;30;20064;-82
2023/02/27 09:41:04;;;;;;;2.90;0.85;;;4.00;65.80;;;;;;4697632;30;20132;-82
2023/02/27 09:43:46;;;;;;;2.88;0.98;;;4.10;66.10;;;;;;4691750;30;20053;-81
2023/02/27 09:46:20;;;;;;;4.90;0.90;;;4.40;65.70;;;;;;4669484;30;20426;-81
2023/02/27 09:48:56;;;;;;;5.70;1.70;;;4.50;65.70;;;;;;4702162;30;20064;-82
2023/02/27 09:51:23;;;;;;;3.58;0.93;;;4.60;64.70;;;;;;4697336;30;20688;-81
2023/02/27 09:53:57;;;;;;;3.10;0.70;;;4.30;64.20;;;;;;4699193;30;20407;-81
2023/02/27 09:56:48;;;;;;;2.65;1.17;;;4.60;64.00;;;;;;4694667;30;20540;-81
2023/02/27 09:59:26;;;;;;;2.22;0.98;;;4.70;63.70;;;;;;4683320;30;20061;-80
2023/02/27 10:02:15;;;;;;;3.53;0.82;;;4.80;64.90;;;;;;4701859;30;20040;-81
2023/02/27 10:05:11;;;;;;;2.50;0.82;;;4.80;64.00;;;;;;4698513;30;20819;-81
2023/02/27 10:08:00;;;;;;;2.97;0.80;;;4.70;62.90;;;;;;4709822;30;20095;-81
2023/02/27 10:10:39;;;;;;;2.05;0.80;;;4.70;63.00;;;;;;4690780;30;22636;-81
2023/02/27 10:13:31;;;;;;;1.88;0.80;;;4.70;63.70;;;;;;4696123;30;20065;-81
2023/02/27 10:15:59;;;;;;;5.18;1.30;;;4.80;64.30;;;;;;4701162;30;20061;-80
2023/02/27 10:18:34;;;;;;;4.22;1.90;;;4.80;65.10;;;;;;4685214;30;20110;-80
2023/02/27 10:21:15;;;;;;;4.47;1.50;;;4.80;63.70;;;;;;4694807;30;20056;-81
2023/02/27 10:24:10;;;;;;;3.25;1.00;;;4.80;63.10;;;;;;4690512;30;20543;-81
2023/02/27 10:26:43;;;;;;;2.67;0.90;;;5.00;64.70;;;;;;4692905;30;20122;-81
2023/02/27 10:29:17;;;;;;;;;;;5.10;64.00;;;;;;4696809;30;20076;-81
2023/02/27 10:31:48;;;;;;;3.13;1.15;;;5.20;64.10;;;;;;4706238;30;19969;-81
2023/02/27 10:34:16;;;;;;;3.45;1.10;;;5.30;63.60;;;;;;4724560;30;20120;-81
2023/02/27 10:36:46;;;;;;;7.13;1.17;;;5.40;64.20;;;;;;4707042;30;20057;-81
2023/02/27 10:39:17;;;;;;;3.60;1.13;;;5.60;63.90;;;;;;4706796;30;20147;-81
2023/02/27 10:41:45;;;;;;;3.00;1.08;;;5.30;61.20;;;;;;4696593;30;20088;-81
2023/02/27 10:44:16;;;;;;;5.10;1.67;;;5.30;61.60;;;;;;4680926;30;22261;-81
2023/02/27 10:46:43;;;;;;;3.70;1.30;;;5.50;61.90;;;;;;4695431;30;20064;-81
2023/02/27 10:49:17;;;;;;;3.75;1.17;;;5.40;60.00;;;;;;4716999;30;20068;-81
2023/02/27 10:52:02;;;;;;;3.75;1.15;;;5.50;60.90;;;;;;4697446;30;20057;-81
2023/02/27 10:54:29;;;;;;;2.40;0.80;;;5.60;61.30;;;;;;4704858;30;20056;-81
2023/02/27 10:57:02;;;;;;;5.57;0.93;;;5.70;62.10;;;;;;4670086;30;20064;-81
2023/02/27 10:59:34;;;;;;;5.10;2.55;;;5.60;60.60;;;;;;4694552;30;20064;-81
2023/02/27 11:02:19;;;;;;;3.45;1.20;;;5.60;60.80;;;;;;4697118;30;20109;-81
2023/02/27 11:04:52;;;;;;;3.05;1.15;;;5.50;61.30;;;;;;4681461;30;20573;-81
2023/02/27 11:07:38;;;;;;;3.65;1.77;;;5.50;61.50;;;;;;4705783;30;20096;-80
2023/02/27 11:10:12;;;;;;;4.90;1.23;;;5.70;61.40;;;;;;4664427;30;20064;-80
2023/02/27 11:12:42;;;;;;;3.92;1.65;;;6.00;61.70;;;;;;4685748;30;20061;-79
2023/02/27 11:15:16;;;;;;;2.80;1.02;;;5.90;61.40;;;;;;4672186;30;20113;-80
2023/02/27 11:17:43;;;;;;;4.95;1.17;;;6.10;61.90;;;;;;4702994;30;20172;-81
2023/02/27 11:20:29;;;;;;;4.38;1.52;;;6.60;61.90;;;;;;4677789;30;20045;-81
2023/02/27 11:23:15;;;;;;;5.72;1.20;;;6.20;59.40;;;;;;4696262;30;22582;-81
2023/02/27 11:25:43;;;;;;;3.13;0.98;;;5.80;59.30;;;;;;4680559;30;20740;-81
2023/02/27 11:28:27;;;;;;;8.95;2.58;;;5.80;59.80;;;;;;4692817;30;20061;-81
2023/02/27 11:31:05;;;;;;;6.80;3.15;;;5.70;59.60;;;;;;4695797;30;20095;-81
2023/02/27 11:33:46;;;;;;;9.68;4.07;;;5.60;59.90;;;;;;4692005;30;20056;-81
2023/02/27 11:36:14;;;;;;;12.80;11.35;;;5.00;60.30;;;;;;4698253;30;20061;-81
2023/02/27 11:38:51;;;;;;;3.78;2.00;;;5.90;60.20;;;;;;4680832;30;20045;-81
2023/02/27 11:41:20;;;;;;;5.72;2.80;;;6.00;61.50;;;;;;4692614;30;22746;-81
2023/02/27 11:43:51;;;;;;;5.40;2.33;;;6.00;59.80;;;;;;4655792;30;20109;-81
2023/02/27 11:46:23;;;;;;;5.60;3.13;;;6.00;59.80;;;;;;4698497;30;20115;-81
2023/02/27 11:49:53;;;;;;;6.53;2.60;;;5.70;59.70;;;;;;4705727;30;20498;-81
2023/02/27 11:52:46;;;;;;;5.28;2.00;;;5.70;60.20;;;;;;4691195;30;22044;-81
2023/02/27 11:55:16;;;;;;;;;;;4.70;60.10;;;;;;4702761;30;20067;-81
2023/02/27 11:57:47;;;;;;;4.43;1.88;;;5.80;60.40;;;;;;4693084;30;19941;-81
2023/02/27 12:00:20;;;;;;;4.72;1.17;;;5.80;60.70;;;;;;4711001;30;20601;-81
2023/02/27 12:03:13;;;;;;;3.05;1.02;;;5.80;59.50;;;;;;4681586;30;20065;-81
2023/02/27 12:05:52;;;;;;;4.80;2.05;;;5.80;60.30;;;;;;4696946;30;20057;-81
2023/02/27 12:08:43;;;;;;;2.35;1.00;;;6.00;61.80;;;;;;4711601;30;22188;-81
2023/02/27 12:11:39;;;;;;;4.10;1.42;;;6.10;60.30;;;;;;4695421;30;20181;-81
2023/02/27 12:14:06;;;;;;;3.67;1.17;;;6.10;61.10;;;;;;4676939;30;20094;-81
2023/02/27 12:16:41;;;;;;;4.82;1.38;;;5.80;60.40;;;;;;4669576;30;22501;-81
2023/02/27 12:19:28;;;;;;;5.35;1.38;;;6.40;60.50;;;;;;4698229;30;20053;-81
2023/02/27 12:22:03;;;;;;;5.20;3.08;;;6.50;60.40;;;;;;4699034;30;20060;-81
2023/02/27 12:24:44;;;;;;;5.00;2.70;;;6.70;61.30;;;;;;4687660;30;20060;-81
2023/02/27 12:27:22;;;;;;;3.95;1.67;;;6.70;59.70;;;;;;4664325;30;20067;-81
2023/02/27 12:29:58;;;;;;;6.13;2.47;;;6.70;59.90;;;;;;4703494;30;20065;-81
2023/02/27 12:32:35;;;;;;;4.50;1.52;;;6.10;58.80;;;;;;4690099;30;20786;-81
2023/02/27 12:35:18;;;;;;;6.20;3.63;;;6.20;58.30;;;;;;4694973;30;20466;-81
2023/02/27 12:37:46;;;;;;;5.90;3.70;;;6.20;59.50;;;;;;4696362;30;20056;-81
2023/02/27 12:40:16;;;;;;;3.83;2.00;;;6.40;59.60;;;;;;4692907;30;20410;-81
2023/02/27 12:43:04;;;;;;;13.65;7.00;;;6.50;58.00;;;;;;4704405;30;20053;-81
2023/02/27 12:45:54;;;;;;;4.53;1.77;;;6.50;58.90;;;;;;4675909;30;20525;-80
2023/02/27 12:48:44;;;;;;;4.35;1.33;;;6.50;57.70;;;;;;4693620;30;20071;-80
2023/02/27 12:51:37;;;;;;;4.20;1.40;;;7.00;58.40;;;;;;4688109;30;20195;-81
2023/02/27 12:54:21;;;;;;;4.82;1.80;;;7.40;60.20;;;;;;4683882;30;20052;-81
2023/02/27 12:57:17;;;;;;;14.77;5.25;;;7.50;59.00;;;;;;4698780;30;20065;-82
2023/02/27 13:00:09;;;;;;;5.68;1.92;;;7.10;57.50;;;;;;4703848;30;20060;-80
2023/02/27 13:03:13;;;;;;;20.85;7.45;;;7.40;57.00;;;;;;4686972;30;20176;-81
2023/02/27 13:05:43;;;;;;;11.35;3.45;;;7.10;56.90;;;;;;4679074;30;20456;-80
2023/02/27 13:08:11;;;;;;;8.77;2.97;;;6.90;57.70;;;;;;4699631;30;20509;-80
2023/02/27 13:10:44;;;;;;;5.32;1.75;;;6.80;58.10;;;;;;4682171;30;20062;-81
2023/02/27 13:13:39;;;;;;;3.30;1.38;;;6.60;58.10;;;;;;4694761;30;20517;-81
2023/02/27 13:16:18;;;;;;;3.83;1.80;;;6.50;58.30;;;;;;4678012;30;20158;-81
2023/02/27 13:19:10;;;;;;;5.45;3.05;;;6.30;58.10;;;;;;4697815;30;20071;-81
2023/02/27 13:21:41;;;;;;;4.38;2.03;;;6.10;58.80;;;;;;4699249;30;20106;-81
2023/02/27 13:24:25;;;;;;;8.38;2.90;;;6.30;60.00;;;;;;4683678;30;20270;-81
2023/02/27 13:26:58;;;;;;;3.70;1.52;;;6.30;60.80;;;;;;4707842;30;22502;-82
2023/02/27 13:29:32;;;;;;;;;;;6.20;59.30;;;;;;4698216;30;22639;-82
2023/02/27 13:32:04;;;;;;;7.20;3.08;;;5.70;60.10;;;;;;4686210;30;19934;-82
2023/02/27 13:34:37;;;;;;;7.90;2.03;;;6.30;60.00;;;;;;4691271;30;20069;-82